createdAt,value
2019-02-14T00:00:17.539Z,63.10
2019-02-14T00:02:46.162Z,63.20
2019-02-14T00:05:16.661Z,63.20
2019-02-14T00:07:45.202Z,63.40
2019-02-14T00:10:13.901Z,63.10
2019-02-14T00:12:42.664Z,63.10
2019-02-14T00:15:12.776Z,62.90
2019-02-14T00:17:41.482Z,63.40
2019-02-14T00:20:10.829Z,63.60
2019-02-14T00:22:39.534Z,63.80
2019-02-14T00:25:08.234Z,63.60
2019-02-14T00:27:37.003Z,63.30
2019-02-14T00:30:07.904Z,63.10
2019-02-14T00:32:36.610Z,62.40
2019-02-14T00:35:06.274Z,62.20
2019-02-14T00:37:34.997Z,61.50
2019-02-14T00:40:04.846Z,61.00
2019-02-14T00:42:33.654Z,61.60
2019-02-14T00:45:02.372Z,62.40
2019-02-14T00:47:31.086Z,62.80
2019-02-14T00:49:59.836Z,62.50
2019-02-14T00:52:28.536Z,62.80
2019-02-14T00:54:57.254Z,63.40
2019-02-14T00:57:26.019Z,63.20
2019-02-14T00:59:54.722Z,62.40
2019-02-14T01:02:23.410Z,61.40
2019-02-14T01:04:52.169Z,60.50
2019-02-14T01:07:20.861Z,61.10
2019-02-14T01:09:49.564Z,60.40
2019-02-14T01:12:18.335Z,60.80
2019-02-14T01:14:47.028Z,61.40
2019-02-14T01:17:15.676Z,61.40
2019-02-14T01:19:44.434Z,61.30
2019-02-14T01:22:13.124Z,62.30
2019-02-14T01:24:41.825Z,62.90
2019-02-14T01:27:10.601Z,62.90
2019-02-14T01:29:39.277Z,63.40
2019-02-14T01:32:07.990Z,63.60
2019-02-14T01:34:36.683Z,64.00
2019-02-14T01:37:05.386Z,64.10
2019-02-14T01:39:34.078Z,63.80
2019-02-14T01:42:02.843Z,64.10
2019-02-14T01:44:31.533Z,64.30
2019-02-14T01:47:00.336Z,64.30
2019-02-14T01:49:29.102Z,64.00
2019-02-14T01:51:57.805Z,63.00
2019-02-14T01:54:26.507Z,62.10
2019-02-14T01:56:55.270Z,61.80
2019-02-14T01:59:23.966Z,61.40
2019-02-14T02:01:52.663Z,61.10
2019-02-14T02:04:21.430Z,61.20
2019-02-14T02:06:50.136Z,61.20
2019-02-14T02:09:18.829Z,61.30
2019-02-14T02:11:47.590Z,61.30
2019-02-14T02:14:16.277Z,62.30
2019-02-14T02:16:44.904Z,61.30
2019-02-14T02:19:13.657Z,61.40
2019-02-14T02:21:42.360Z,61.40
2019-02-14T02:24:11.041Z,61.60
2019-02-14T02:26:39.811Z,61.80
2019-02-14T02:29:08.360Z,61.90
2019-02-14T02:31:37.057Z,61.80
2019-02-14T02:34:05.827Z,62.00
2019-02-14T02:36:34.527Z,62.30
2019-02-14T02:39:04.797Z,63.40
2019-02-14T02:41:33.540Z,63.40
2019-02-14T02:44:02.254Z,62.80
2019-02-14T02:46:30.955Z,62.70
2019-02-14T02:48:59.651Z,63.50
2019-02-14T02:51:28.363Z,64.20
2019-02-14T02:53:57.080Z,63.80
2019-02-14T02:56:25.835Z,62.90
2019-02-14T02:58:54.521Z,62.60
2019-02-14T03:01:23.230Z,62.30
2019-02-14T03:03:52.005Z,63.00
2019-02-14T03:06:20.707Z,64.10
2019-02-14T03:08:49.339Z,64.50
2019-02-14T03:11:18.096Z,64.20
2019-02-14T03:13:46.787Z,63.30
2019-02-14T03:16:15.492Z,63.00
2019-02-14T03:18:44.258Z,62.90
2019-02-14T03:21:12.963Z,62.30
2019-02-14T03:23:41.650Z,61.80
2019-02-14T03:26:10.401Z,61.80
2019-02-14T03:28:39.106Z,62.50
2019-02-14T03:31:07.798Z,63.00
2019-02-14T03:33:36.571Z,63.10
2019-02-14T03:36:05.275Z,62.90
2019-02-14T03:38:33.965Z,63.90
2019-02-14T03:41:02.719Z,64.20
2019-02-14T03:43:31.425Z,64.00
2019-02-14T03:46:00.109Z,64.00
2019-02-14T03:48:28.850Z,64.60
2019-02-14T03:50:57.553Z,64.70
2019-02-14T03:53:26.245Z,64.70
2019-02-14T03:55:55.003Z,65.10
2019-02-14T03:58:23.625Z,65.30
2019-02-14T04:00:52.325Z,65.80
2019-02-14T04:03:21.095Z,66.00
2019-02-14T04:05:49.802Z,66.00
2019-02-14T04:08:18.485Z,66.30
2019-02-14T04:10:47.252Z,67.60
2019-02-14T04:13:15.960Z,67.90
2019-02-14T04:15:44.655Z,67.30
2019-02-14T04:18:13.422Z,67.00
2019-02-14T04:20:42.123Z,67.70
2019-02-14T04:23:10.820Z,67.90
2019-02-14T04:25:39.578Z,68.30
2019-02-14T04:28:08.283Z,67.80
2019-02-14T04:30:36.997Z,67.20
2019-02-14T04:33:05.760Z,67.00
2019-02-14T04:35:34.456Z,66.90
2019-02-14T04:38:03.158Z,67.70
2019-02-14T04:40:33.570Z,68.50
2019-02-14T04:43:02.253Z,68.80
2019-02-14T04:45:30.948Z,69.10
2019-02-14T04:47:59.620Z,69.10
2019-02-14T04:50:28.341Z,68.90
2019-02-14T04:52:57.038Z,68.90
2019-02-14T04:55:25.797Z,68.80
2019-02-14T04:57:54.499Z,68.70
2019-02-14T05:00:23.194Z,68.50
2019-02-14T05:02:51.955Z,68.50
2019-02-14T05:05:20.675Z,69.00
2019-02-14T05:07:49.379Z,68.90
2019-02-14T05:10:18.131Z,69.20
2019-02-14T05:12:46.842Z,69.10
2019-02-14T05:15:15.533Z,69.50
2019-02-14T05:17:44.295Z,69.10
2019-02-14T05:20:13.404Z,69.10
2019-02-14T05:22:42.094Z,69.70
2019-02-14T05:25:10.856Z,68.50
2019-02-14T05:27:39.546Z,68.40
2019-02-14T05:30:16.696Z,67.90
2019-02-14T05:32:45.381Z,68.20
2019-02-14T05:35:14.077Z,68.70
2019-02-14T05:37:42.834Z,68.50
2019-02-14T05:40:12.121Z,67.50
2019-02-14T05:42:40.838Z,67.80
2019-02-14T05:45:13.362Z,68.10
2019-02-14T05:47:42.021Z,68.90
2019-02-14T05:50:14.766Z,68.30
2019-02-14T05:52:43.524Z,68.70
2019-02-14T05:55:12.816Z,68.40
2019-02-14T05:57:41.688Z,68.40
2019-02-14T06:00:16.316Z,69.00
2019-02-14T06:02:46.110Z,69.40
2019-02-14T06:05:14.818Z,69.90
2019-02-14T06:07:43.564Z,70.00
2019-02-14T06:10:12.556Z,70.60
2019-02-14T06:12:41.263Z,71.00
2019-02-14T06:15:13.973Z,71.60
2019-02-14T06:17:42.606Z,71.40
2019-02-14T06:20:12.514Z,71.30
2019-02-14T06:22:41.271Z,71.00
2019-02-14T06:25:13.494Z,70.70
2019-02-14T06:27:42.189Z,71.10
2019-02-14T06:30:15.577Z,71.00
2019-02-14T06:32:44.266Z,71.10
2019-02-14T06:35:12.973Z,70.30
2019-02-14T06:37:41.862Z,70.50
2019-02-14T06:40:14.205Z,70.20
2019-02-14T06:42:42.902Z,70.00
2019-02-14T06:45:13.913Z,69.70
2019-02-14T06:47:42.605Z,69.30
2019-02-14T06:50:11.309Z,69.10
2019-02-14T06:52:40.456Z,69.50
2019-02-14T06:55:09.771Z,69.20
2019-02-14T06:57:38.457Z,69.10
2019-02-14T07:00:13.150Z,68.50
2019-02-14T07:02:41.849Z,68.10
2019-02-14T07:05:10.961Z,67.40
2019-02-14T07:07:40.316Z,67.50
2019-02-14T07:10:10.427Z,67.70
2019-02-14T07:12:39.123Z,67.50
2019-02-14T07:15:10.584Z,66.90
2019-02-14T07:17:39.292Z,66.00
2019-02-14T07:20:13.966Z,64.40
2019-02-14T07:22:42.724Z,64.30
2019-02-14T07:25:12.120Z,64.90
2019-02-14T07:27:40.821Z,65.10
2019-02-14T07:30:15.590Z,64.00
2019-02-14T07:32:44.277Z,64.10
2019-02-14T07:35:12.997Z,63.50
2019-02-14T07:37:41.755Z,63.30
2019-02-14T07:40:12.745Z,61.20
2019-02-14T07:42:41.554Z,58.30
2019-02-14T07:45:17.845Z,55.70
2019-02-14T07:47:46.570Z,52.50
2019-02-14T07:50:15.280Z,49.70
2019-02-14T07:52:44.046Z,48.00
2019-02-14T07:55:13.807Z,45.80
2019-02-14T07:57:42.577Z,44.90
2019-02-14T08:00:16.845Z,44.90
2019-02-14T08:02:45.549Z,43.70
2019-02-14T08:05:14.245Z,41.00
2019-02-14T08:07:43.020Z,39.00
2019-02-14T08:10:16.644Z,37.50
2019-02-14T08:12:45.341Z,37.80
2019-02-14T08:15:14.801Z,37.20
2019-02-14T08:17:43.515Z,36.40
2019-02-14T08:20:17.623Z,37.50
2019-02-14T08:22:46.412Z,38.60
2019-02-14T08:25:15.172Z,39.60
2019-02-14T08:27:43.887Z,38.30
2019-02-14T08:30:14.857Z,36.00
2019-02-14T08:32:43.476Z,34.00
2019-02-14T08:35:12.191Z,34.00
2019-02-14T08:37:45.707Z,33.30
2019-02-14T08:40:31.287Z,31.70
2019-02-14T08:43:00.041Z,31.60
2019-02-14T08:45:28.765Z,29.90
2019-02-14T08:47:57.475Z,29.50
2019-02-14T08:50:26.335Z,28.60
2019-02-14T08:52:55.036Z,29.10
2019-02-14T08:55:23.748Z,28.00
2019-02-14T08:57:52.744Z,28.00
2019-02-14T09:00:21.450Z,28.00
2019-02-14T09:02:50.146Z,27.30
2019-02-14T09:05:18.936Z,26.80
2019-02-14T09:07:54.254Z,26.50
2019-02-14T09:10:18.403Z,26.60
2019-02-14T09:12:47.173Z,27.80
2019-02-14T09:15:15.983Z,28.20
2019-02-14T09:17:44.715Z,28.20
2019-02-14T09:20:20.747Z,27.90
2019-02-14T09:22:49.449Z,26.00
2019-02-14T09:25:18.151Z,26.50
2019-02-14T09:27:46.909Z,26.00
2019-02-14T09:30:15.739Z,25.30
2019-02-14T09:32:44.447Z,25.90
2019-02-14T09:35:13.227Z,25.40
2019-02-14T09:37:41.948Z,24.40
2019-02-14T09:40:19.564Z,24.20
2019-02-14T09:42:48.265Z,24.40
2019-02-14T09:45:16.961Z,25.00
2019-02-14T09:47:45.712Z,24.00
2019-02-14T09:50:15.418Z,23.10
2019-02-14T09:52:44.134Z,22.40
2019-02-14T09:55:14.025Z,23.30
2019-02-14T09:57:42.726Z,22.20
2019-02-14T10:00:17.370Z,21.50
2019-02-14T10:02:46.097Z,20.90
2019-02-14T10:05:15.194Z,23.20
2019-02-14T10:07:43.942Z,23.60
2019-02-14T10:10:20.599Z,23.20
2019-02-14T10:12:49.202Z,24.00
2019-02-14T10:15:17.901Z,25.00
2019-02-14T10:17:46.615Z,26.20
2019-02-14T10:20:16.861Z,26.90
2019-02-14T10:22:45.565Z,28.80
2019-02-14T10:25:14.261Z,29.30
2019-02-14T10:27:43.024Z,29.60
2019-02-14T10:30:20.698Z,29.90
2019-02-14T10:32:49.465Z,29.50
2019-02-14T10:35:18.216Z,29.20
2019-02-14T10:37:46.916Z,30.00
2019-02-14T10:40:16.537Z,30.70
2019-02-14T10:42:45.246Z,30.10
2019-02-14T10:45:20.211Z,31.10
2019-02-14T10:47:48.920Z,30.10
2019-02-14T10:50:17.622Z,30.30
2019-02-14T10:52:46.400Z,29.40
2019-02-14T10:55:15.598Z,31.20
2019-02-14T10:57:44.307Z,33.40
2019-02-14T11:00:24.093Z,35.00
2019-02-14T11:02:52.816Z,36.90
2019-02-14T11:05:21.522Z,37.90
2019-02-14T11:07:50.277Z,35.70
2019-02-14T11:10:18.972Z,34.50
2019-02-14T11:12:47.681Z,33.60
2019-02-14T11:15:26.929Z,32.60
2019-02-14T11:17:55.633Z,32.90
2019-02-14T11:20:24.342Z,33.50
2019-02-14T11:22:53.099Z,32.80
2019-02-14T11:25:25.074Z,32.30
2019-02-14T11:27:53.782Z,32.50
2019-02-14T11:30:22.560Z,33.00
2019-02-14T11:32:51.257Z,32.80
2019-02-14T11:35:19.975Z,34.10
2019-02-14T11:37:48.744Z,35.10
2019-02-14T11:40:17.435Z,34.20
2019-02-14T11:42:46.133Z,34.30
2019-02-14T11:45:21.916Z,35.20
2019-02-14T11:47:50.692Z,35.60
2019-02-14T11:50:19.473Z,35.40
2019-02-14T11:52:48.317Z,36.00
2019-02-14T11:55:17.073Z,36.00
2019-02-14T11:57:45.787Z,36.60
2019-02-14T12:00:24.699Z,37.80
2019-02-14T12:02:56.045Z,37.90
2019-02-14T12:05:23.749Z,37.40
2019-02-14T12:07:52.534Z,36.80
2019-02-14T12:10:21.250Z,34.80
2019-02-14T12:12:49.956Z,34.10
2019-02-14T12:15:18.650Z,33.90
2019-02-14T12:17:47.364Z,33.00
2019-02-14T12:20:16.465Z,31.80
2019-02-14T12:22:47.117Z,33.50
2019-02-14T12:25:30.332Z,33.30
2019-02-14T12:27:59.013Z,33.20
2019-02-14T12:30:27.712Z,35.20
2019-02-14T12:32:56.409Z,34.60
2019-02-14T12:35:25.188Z,34.70
2019-02-14T12:37:53.830Z,36.10
2019-02-14T12:40:22.543Z,36.40
2019-02-14T12:42:51.307Z,37.00
2019-02-14T12:45:24.265Z,36.30
2019-02-14T12:47:52.950Z,37.10
2019-02-14T12:50:21.714Z,37.50
2019-02-14T12:52:50.410Z,37.50
2019-02-14T12:55:19.136Z,38.20
2019-02-14T12:57:47.903Z,39.00
2019-02-14T13:00:19.375Z,38.80
2019-02-14T13:02:48.082Z,39.40
2019-02-14T13:05:16.842Z,40.30
2019-02-14T13:07:45.541Z,42.10
2019-02-14T13:10:16.453Z,40.50
2019-02-14T13:12:45.224Z,41.30
2019-02-14T13:15:16.976Z,41.30
2019-02-14T13:17:45.682Z,41.50
2019-02-14T13:20:14.461Z,42.30
2019-02-14T13:22:43.179Z,41.70
2019-02-14T13:25:12.920Z,42.20
2019-02-14T13:27:41.690Z,41.80
2019-02-14T13:30:26.843Z,40.80
2019-02-14T13:32:55.706Z,41.20
2019-02-14T13:35:24.507Z,41.60
2019-02-14T13:37:53.354Z,41.80
2019-02-14T13:40:22.205Z,42.20
2019-02-14T13:42:50.913Z,42.00
2019-02-14T13:45:24.047Z,43.20
2019-02-14T13:47:52.823Z,42.40
2019-02-14T13:50:21.519Z,41.70
2019-02-14T13:52:50.231Z,41.50
2019-02-14T13:55:18.989Z,41.80
2019-02-14T13:57:47.689Z,42.50
2019-02-14T14:00:19.120Z,42.20
2019-02-14T14:02:47.896Z,42.90
2019-02-14T14:05:16.603Z,42.20
2019-02-14T14:07:45.302Z,42.20
2019-02-14T14:10:13.994Z,42.60
2019-02-14T14:12:42.705Z,42.60
2019-02-14T14:15:11.402Z,43.20
2019-02-14T14:17:40.185Z,43.60
2019-02-14T14:20:10.074Z,43.00
2019-02-14T14:22:38.710Z,43.50
2019-02-14T14:25:09.385Z,43.60
2019-02-14T14:27:38.081Z,43.70
2019-02-14T14:30:11.857Z,43.30
2019-02-14T14:32:40.542Z,43.70
2019-02-14T14:35:11.006Z,43.50
2019-02-14T14:37:40.267Z,43.70
2019-02-14T14:40:12.153Z,43.20
2019-02-14T14:42:42.435Z,43.30
2019-02-14T14:45:12.697Z,43.50
2019-02-14T14:47:41.469Z,43.60
2019-02-14T14:50:10.183Z,44.80
2019-02-14T14:52:38.805Z,43.60
2019-02-14T14:55:07.578Z,43.50
2019-02-14T14:57:36.295Z,44.00
2019-02-14T15:00:07.200Z,42.50
2019-02-14T15:02:35.934Z,42.10
2019-02-14T15:05:05.442Z,42.00
2019-02-14T15:07:34.140Z,41.70
2019-02-14T15:10:02.938Z,41.90
2019-02-14T15:12:31.647Z,42.20
2019-02-14T15:15:00.345Z,42.30
2019-02-14T15:17:29.105Z,42.70
2019-02-14T15:19:57.814Z,43.20
2019-02-14T15:22:26.510Z,44.30
2019-02-14T15:24:55.269Z,44.50
2019-02-14T15:27:23.973Z,44.10
2019-02-14T15:29:52.677Z,45.10
2019-02-14T15:32:21.361Z,45.20
2019-02-14T15:34:50.062Z,45.20
2019-02-14T15:37:18.782Z,44.90
2019-02-14T15:39:47.526Z,45.00
2019-02-14T15:42:16.257Z,44.50
2019-02-14T15:44:44.953Z,45.00
2019-02-14T15:47:13.727Z,46.70
2019-02-14T15:49:42.440Z,46.30
2019-02-14T15:52:11.160Z,47.80
2019-02-14T15:54:39.928Z,47.10
2019-02-14T15:57:08.653Z,47.10
2019-02-14T15:59:40.484Z,47.40
2019-02-14T16:02:09.063Z,47.90
2019-02-14T16:04:37.758Z,47.40
2019-02-14T16:07:06.469Z,47.60
2019-02-14T16:09:36.543Z,47.30
2019-02-14T16:12:05.591Z,47.30
2019-02-14T16:14:34.296Z,46.60
2019-02-14T16:17:03.003Z,47.00
2019-02-14T16:19:32.337Z,47.10
2019-02-14T16:22:02.041Z,47.20
2019-02-14T16:24:30.829Z,48.10
2019-02-14T16:27:01.176Z,48.60
2019-02-14T16:29:29.828Z,48.80
2019-02-14T16:31:58.517Z,49.50
2019-02-14T16:34:27.247Z,49.20
2019-02-14T16:36:55.877Z,48.90
2019-02-14T16:39:25.741Z,48.80
2019-02-14T16:41:54.645Z,49.40
2019-02-14T16:44:23.378Z,49.70
2019-02-14T16:46:52.155Z,49.90
2019-02-14T16:49:20.872Z,50.20
2019-02-14T16:51:49.570Z,51.20
2019-02-14T16:54:18.320Z,50.90
2019-02-14T16:56:47.034Z,51.00
2019-02-14T16:59:15.805Z,51.10
2019-02-14T17:01:44.581Z,51.70
2019-02-14T17:04:13.209Z,52.30
2019-02-14T17:06:41.913Z,52.50
2019-02-14T17:09:10.663Z,52.70
2019-02-14T17:11:39.375Z,53.50
2019-02-14T17:14:08.501Z,54.50
2019-02-14T17:16:37.465Z,54.70
2019-02-14T17:19:06.187Z,54.30
2019-02-14T17:21:34.888Z,54.50
2019-02-14T17:24:03.628Z,54.40
2019-02-14T17:26:32.347Z,54.10
2019-02-14T17:29:01.254Z,54.50
2019-02-14T17:31:30.044Z,54.80
2019-02-14T17:33:58.768Z,54.60
2019-02-14T17:36:27.479Z,54.70
2019-02-14T17:38:59.093Z,55.30
2019-02-14T17:41:27.761Z,55.30
2019-02-14T17:43:56.433Z,55.70
2019-02-14T17:46:25.173Z,56.00
2019-02-14T17:48:53.861Z,56.00
2019-02-14T17:51:22.571Z,56.20
2019-02-14T17:53:51.295Z,56.30
2019-02-14T17:56:19.953Z,56.60
2019-02-14T17:58:48.598Z,56.80
2019-02-14T18:01:17.297Z,57.20
2019-02-14T18:03:45.946Z,57.70
2019-02-14T18:06:14.647Z,58.00
2019-02-14T18:08:43.345Z,58.20
2019-02-14T18:11:12.008Z,58.40
2019-02-14T18:13:40.660Z,58.80
2019-02-14T18:16:09.407Z,59.00
2019-02-14T18:18:38.074Z,59.20
2019-02-14T18:21:06.716Z,59.50
2019-02-14T18:23:35.405Z,59.80
2019-02-14T18:26:04.051Z,60.00
2019-02-14T18:28:32.699Z,60.40
2019-02-14T18:31:01.406Z,60.70
2019-02-14T18:33:30.072Z,61.40
2019-02-14T18:35:58.818Z,61.70
2019-02-14T18:38:27.511Z,62.00
2019-02-14T18:41:03.930Z,62.30
2019-02-14T18:43:26.579Z,62.20
2019-02-14T18:45:55.312Z,62.30
2019-02-14T18:48:23.976Z,62.60
2019-02-14T18:50:53.078Z,63.00
2019-02-14T18:53:21.816Z,63.10
2019-02-14T18:55:50.499Z,63.30
2019-02-14T18:58:26.005Z,63.30
2019-02-14T19:00:49.496Z,63.00
2019-02-14T19:03:18.163Z,63.10
2019-02-14T19:05:46.817Z,63.10
2019-02-14T19:08:15.541Z,63.20
2019-02-14T19:10:44.188Z,63.00
2019-02-14T19:13:12.818Z,63.00
2019-02-14T19:15:41.509Z,62.70
2019-02-14T19:18:10.183Z,62.50
2019-02-14T19:20:38.817Z,62.90
2019-02-14T19:23:07.542Z,62.70
2019-02-14T19:25:36.185Z,62.40
2019-02-14T19:28:04.849Z,62.20
2019-02-14T19:30:33.560Z,62.20
2019-02-14T19:33:02.202Z,62.10
2019-02-14T19:35:30.847Z,62.40
2019-02-14T19:37:59.539Z,62.60
2019-02-14T19:40:28.195Z,62.90
2019-02-14T19:42:56.865Z,62.80
2019-02-14T19:45:25.557Z,62.30
2019-02-14T19:47:54.207Z,62.10
2019-02-14T19:50:22.848Z,62.10
2019-02-14T19:52:51.553Z,61.90
2019-02-14T19:55:20.189Z,62.30
2019-02-14T19:57:48.863Z,61.20
2019-02-14T20:00:17.534Z,61.30
2019-02-14T20:02:46.179Z,61.00
2019-02-14T20:05:14.842Z,60.90
2019-02-14T20:07:43.551Z,60.90
2019-02-14T20:10:13.815Z,61.40
2019-02-14T20:12:42.461Z,61.40
2019-02-14T20:15:13.815Z,61.20
2019-02-14T20:17:42.582Z,61.20
2019-02-14T20:20:11.257Z,61.10
2019-02-14T20:22:39.963Z,61.10
2019-02-14T20:25:20.785Z,60.80
2019-02-14T20:27:50.068Z,60.80
2019-02-14T20:30:18.878Z,60.70
2019-02-14T20:32:47.532Z,60.60
2019-02-14T20:35:16.371Z,60.70
2019-02-14T20:37:45.015Z,60.90
2019-02-14T20:40:13.664Z,60.90
2019-02-14T20:42:42.358Z,60.80
2019-02-14T20:45:13.424Z,60.80
2019-02-14T20:47:42.107Z,60.80
2019-02-14T20:50:17.215Z,60.80
2019-02-14T20:52:45.853Z,60.80
2019-02-14T20:55:25.379Z,60.90
2019-02-14T20:57:54.087Z,61.10
2019-02-14T21:00:27.305Z,60.90
2019-02-14T21:02:56.017Z,60.90
2019-02-14T21:05:24.669Z,60.90
2019-02-14T21:07:53.342Z,61.00
2019-02-14T21:10:22.034Z,61.10
2019-02-14T21:12:50.686Z,61.10
2019-02-14T21:15:19.331Z,60.90
2019-02-14T21:17:48.055Z,60.80
2019-02-14T21:20:17.082Z,60.70
2019-02-14T21:22:45.797Z,60.80
2019-02-14T21:25:14.525Z,61.00
2019-02-14T21:27:43.141Z,61.30
2019-02-14T21:30:20.328Z,61.80
2019-02-14T21:32:49.217Z,62.10
2019-02-14T21:35:17.855Z,62.00
2019-02-14T21:37:46.495Z,62.10
2019-02-14T21:40:16.712Z,62.40
2019-02-14T21:42:45.373Z,62.50
2019-02-14T21:45:15.378Z,62.30
2019-02-14T21:47:44.055Z,62.90
2019-02-14T21:50:13.686Z,63.00
2019-02-14T21:52:42.382Z,63.30
2019-02-14T21:55:12.933Z,64.30
2019-02-14T21:57:41.572Z,65.40
2019-02-14T22:00:16.055Z,65.90
2019-02-14T22:02:45.017Z,65.90
2019-02-14T22:05:13.675Z,65.50
2019-02-14T22:07:42.370Z,65.50
2019-02-14T22:10:12.604Z,65.40
2019-02-14T22:12:42.789Z,65.50
2019-02-14T22:15:20.647Z,65.90
2019-02-14T22:17:49.332Z,66.20
2019-02-14T22:20:18.031Z,66.60
2019-02-14T22:22:46.688Z,67.00
2019-02-14T22:25:16.130Z,66.80
2019-02-14T22:27:44.790Z,66.60
2019-02-14T22:30:15.157Z,66.50
2019-02-14T22:32:44.305Z,66.70
2019-02-14T22:35:14.052Z,66.60
2019-02-14T22:37:42.703Z,67.00
2019-02-14T22:40:12.438Z,67.20
2019-02-14T22:42:47.098Z,67.10
2019-02-14T22:45:13.646Z,66.80
2019-02-14T22:47:43.788Z,67.20
2019-02-14T22:50:13.324Z,67.50
2019-02-14T22:52:42.041Z,67.70
2019-02-14T22:55:14.429Z,67.50
2019-02-14T22:57:43.084Z,67.80
2019-02-14T23:00:21.127Z,67.80
2019-02-14T23:02:49.782Z,68.10
2019-02-14T23:05:18.423Z,68.40
2019-02-14T23:07:47.123Z,68.40
2019-02-14T23:10:15.770Z,68.60
2019-02-14T23:12:44.435Z,68.80
2019-02-14T23:15:13.168Z,69.10
2019-02-14T23:17:41.811Z,69.10
2019-02-14T23:20:10.459Z,69.10
2019-02-14T23:22:39.172Z,68.80
2019-02-14T23:25:07.823Z,69.10
2019-02-14T23:27:36.500Z,69.30
2019-02-14T23:30:08.323Z,69.60
2019-02-14T23:32:36.972Z,69.70
2019-02-14T23:35:05.601Z,69.60
2019-02-14T23:37:34.299Z,68.70
2019-02-14T23:40:02.942Z,67.90
2019-02-14T23:42:31.517Z,67.60
2019-02-14T23:45:00.275Z,67.90
2019-02-14T23:47:28.987Z,68.00
2019-02-14T23:49:57.624Z,67.90
2019-02-14T23:52:26.312Z,66.90
2019-02-14T23:54:54.977Z,66.30
2019-02-14T23:57:23.559Z,66.20
2019-02-14T23:59:52.267Z,66.60
